Time;durP1;ratioP1;P1;durP2;ratioP2;P2;SDS_P1;SDS_P2;PMS_P1;PMS_P2;Temp;Humidity;BMP_temperature;BMP_pressure;BME280_temperature;BME280_humidity;BME280_pressure;Samples;Min_cycle;Max_cycle;Signal;HPM_P1;HPM_P2
2022/09/28 00:00:44;;;;;;;;;;;;;;;13.97;52.85;99092.28;5295816;33;46236;-65
2022/09/28 00:03:47;;;;;;;;;;;;;;;13.52;54.18;99103.47;5268220;33;34310;-78
2022/09/28 00:06:48;;;;;;;;;;;;;;;14.05;53.69;99088.16;5271623;33;34126;-79
2022/09/28 00:09:50;;;;;;;;;;;;;;;14.26;52.98;99100.72;5261817;33;34821;-79
2022/09/28 00:12:54;;;;;;;;;;;;;;;13.83;54.38;99103.88;5282974;33;33818;-65
2022/09/28 00:16:00;;;;;;;;;;;;;;;14.01;53.76;99075.28;5296829;33;33291;-65
2022/09/28 00:19:02;;;;;;;;;;;;;;;13.26;55.49;99075.41;5268136;33;33814;-79
2022/09/28 00:22:04;;;;;;;;;;;;;;;13.81;53.75;99076.75;5284129;33;34072;-75
2022/09/28 00:25:06;;;;;;;;;;;;;;;13.67;54.61;99069.81;5280147;33;35069;-66
2022/09/28 00:28:08;;;;;;;;;;;;;;;13.00;55.94;99074.59;5279944;33;33959;-66
2022/09/28 00:31:10;;;;;;;;;;;;;;;12.99;55.93;99073.75;5296986;33;33584;-66
2022/09/28 00:34:12;;;;;;;;;;;;;;;12.67;56.86;99072.47;5282929;33;45334;-80
2022/09/28 00:37:14;;;;;;;;;;;;;;;13.29;54.96;99077.84;5298189;33;33268;-79
2022/09/28 00:40:15;;;;;;;;;;;;;;;13.14;55.29;99086.81;5282269;33;34289;-79
2022/09/28 00:43:18;;;;;;;;;;;;;;;13.10;55.96;99083.56;5298925;33;33370;-78
2022/09/28 00:46:30;;;;;;;;;;;;;;;12.90;56.76;99086.75;5282725;33;33506;-78
2022/09/28 00:49:33;;;;;;;;;;;;;;;12.92;57.38;99092.75;5282137;33;33576;-79
2022/09/28 00:52:41;;;;;;;;;;;;;;;12.70;58.14;99096.84;5272761;33;34051;-78
2022/09/28 00:55:51;;;;;;;;;;;;;;;12.66;58.52;99092.72;5282179;33;44781;-65
2022/09/28 00:58:53;;;;;;;;;;;;;;;12.77;58.17;99086.75;5283821;33;33674;-79
2022/09/28 01:01:55;;;;;;;;;;;;;;;12.82;57.55;99082.00;5257144;33;34264;-79
2022/09/28 01:04:57;;;;;;;;;;;;;;;12.79;57.41;99092.75;5288190;33;34006;-78
2022/09/28 01:07:59;;;;;;;;;;;;;;;12.28;59.13;99097.09;5270822;33;33808;-65
2022/09/28 01:11:00;;;;;;;;;;;;;;;12.62;58.22;99088.63;5252855;33;33233;-65
2022/09/28 01:14:02;;;;;;;;;;;;;;;12.72;57.27;99094.09;5290155;33;33857;-79
2022/09/28 01:17:14;;;;;;;;;;;;;;;13.06;56.42;99095.25;5267713;33;34575;-79
2022/09/28 01:20:33;;;;;;;;;;;;;;;13.05;57.04;99103.28;5297344;33;44647;-77
2022/09/28 01:23:37;;;;;;;;;;;;;;;12.63;57.41;99092.13;5282292;33;33986;-65
2022/09/28 01:26:55;;;;;;;;;;;;;;;12.34;57.94;99096.69;5276840;33;33789;-79
2022/09/28 01:29:57;;;;;;;;;;;;;;;12.63;57.48;99100.03;5294608;33;34042;-78
2022/09/28 01:33:09;;;;;;;;;;;;;;;13.05;55.96;99103.28;5282009;33;33220;-65
2022/09/28 01:36:13;;;;;;;;;;;;;;;12.32;58.63;99107.34;5281565;33;43255;-78
2022/09/28 01:39:15;;;;;;;;;;;;;;;12.85;57.12;99107.28;5255814;33;33328;-78
2022/09/28 01:42:19;;;;;;;;;;;;;;;12.56;58.37;99118.03;5256437;33;35459;-65
2022/09/28 01:45:22;;;;;;;;;;;;;;;12.18;60.09;99120.59;5282703;33;33300;-78
2022/09/28 01:48:27;;;;;;;;;;;;;;;12.38;59.34;99119.25;5282379;33;34742;-78
2022/09/28 01:51:40;;;;;;;;;;;;;;;12.63;58.87;99121.94;5282629;33;34286;-79
2022/09/28 01:54:43;;;;;;;;;;;;;;;13.19;57.30;99138.28;5280090;33;44683;-79
2022/09/28 01:57:56;;;;;;;;;;;;;;;14.10;54.58;99135.34;5280613;33;33425;-78
2022/09/28 02:01:08;;;;;;;;;;;;;;;13.06;57.15;99128.69;5286567;33;34454;-64
2022/09/28 02:04:15;;;;;;;;;;;;;;;12.60;58.34;99131.84;5271565;33;33895;-65
2022/09/28 02:07:22;;;;;;;;;;;;;;;12.06;60.88;99118.75;5282239;33;44592;-75
2022/09/28 02:10:26;;;;;;;;;;;;;;;12.68;58.36;99116.34;5259927;33;34409;-79
2022/09/28 02:13:30;;;;;;;;;;;;;;;12.57;58.25;99129.44;5283135;33;34631;-64
2022/09/28 02:16:32;;;;;;;;;;;;;;;13.19;57.40;99119.81;5281729;33;34315;-78
2022/09/28 02:19:34;;;;;;;;;;;;;;;13.73;54.30;99121.34;5278470;33;34553;-66
2022/09/28 02:22:55;;;;;;;;;;;;;;;12.94;57.89;99123.31;5283376;33;34195;-79
2022/09/28 02:26:00;;;;;;;;;;;;;;;13.52;56.42;99121.94;5262400;33;33508;-78
2022/09/28 02:29:02;;;;;;;;;;;;;;;13.35;57.06;99119.63;5284414;33;34375;-79
2022/09/28 02:32:04;;;;;;;;;;;;;;;13.64;55.90;99122.00;5283276;33;34044;-65
2022/09/28 02:35:07;;;;;;;;;;;;;;;13.55;56.04;99132.25;5274749;33;34453;-66
2022/09/28 02:38:09;;;;;;;;;;;;;;;14.12;54.17;99127.34;5293682;33;33644;-72
2022/09/28 02:41:17;;;;;;;;;;;;;;;13.73;54.55;99126.63;5282294;33;44594;-79
2022/09/28 02:44:22;;;;;;;;;;;;;;;14.85;52.23;99127.13;5298484;33;33218;-79
2022/09/28 02:47:26;;;;;;;;;;;;;;;13.57;54.06;99131.31;5282877;33;33919;-79
2022/09/28 02:50:32;;;;;;;;;;;;;;;13.61;55.15;99132.78;5284296;33;33686;-78
2022/09/28 02:53:34;;;;;;;;;;;;;;;14.20;53.60;99130.25;5270176;33;33694;-65
2022/09/28 02:56:48;;;;;;;;;;;;;;;13.26;56.22;99128.19;5283263;33;34023;-79
2022/09/28 02:59:56;;;;;;;;;;;;;;;13.96;53.82;99125.78;5296815;33;46375;-78
2022/09/28 03:03:05;;;;;;;;;;;;;;;14.17;53.50;99130.44;5283972;33;33032;-79
2022/09/28 03:06:09;;;;;;;;;;;;;;;15.01;51.55;99142.66;5284049;33;34014;-78
2022/09/28 03:09:27;;;;;;;;;;;;;;;14.89;51.47;99149.75;5264749;33;44311;-66
2022/09/28 03:12:30;;;;;;;;;;;;;;;14.59;52.49;99166.12;5257621;33;33950;-80
2022/09/28 03:15:33;;;;;;;;;;;;;;;13.93;54.88;99154.25;5297675;33;34453;-79
2022/09/28 03:18:35;;;;;;;;;;;;;;;13.22;57.01;99159.25;5269435;33;33779;-78
2022/09/28 03:21:37;;;;;;;;;;;;;;;13.52;55.90;99158.03;5298496;33;34106;-79
2022/09/28 03:24:38;;;;;;;;;;;;;;;14.26;54.19;99164.16;5265900;33;33720;-66
2022/09/28 03:27:40;;;;;;;;;;;;;;;13.87;54.53;99174.00;5285493;33;33817;-65
2022/09/28 03:30:42;;;;;;;;;;;;;;;13.19;57.05;99155.91;5281064;33;44869;-78
2022/09/28 03:33:44;;;;;;;;;;;;;;;14.41;53.00;99155.06;5281945;33;34505;-65
2022/09/28 03:36:46;;;;;;;;;;;;;;;13.99;54.65;99154.63;5298448;33;34616;-67
2022/09/28 03:39:48;;;;;;;;;;;;;;;13.30;57.72;99149.94;5257460;33;33723;-78
2022/09/28 03:42:50;;;;;;;;;;;;;;;14.16;55.36;99157.84;5299333;33;34779;-65
2022/09/28 03:45:55;;;;;;;;;;;;;;;14.40;54.15;99156.03;5281852;33;33854;-78
2022/09/28 03:48:58;;;;;;;;;;;;;;;14.53;53.05;99138.31;5297377;33;34113;-65
2022/09/28 03:51:59;;;;;;;;;;;;;;;13.41;57.41;99156.16;5285233;33;34047;-67
2022/09/28 03:55:01;;;;;;;;;;;;;;;13.73;56.97;99160.97;5282236;33;33794;-79
2022/09/28 03:58:03;;;;;;;;;;;;;;;13.54;57.07;99162.25;5298370;33;33504;-79
2022/09/28 04:01:06;;;;;;;;;;;;;;;13.73;55.67;99163.59;5283308;33;34649;-80
2022/09/28 04:04:10;;;;;;;;;;;;;;;14.22;54.03;99157.38;5283739;33;34507;-80
2022/09/28 04:07:12;;;;;;;;;;;;;;;14.26;52.82;99161.50;5256383;33;45602;-65
2022/09/28 04:10:14;;;;;;;;;;;;;;;13.99;54.49;99169.66;5270714;33;33625;-66
2022/09/28 04:13:16;;;;;;;;;;;;;;;14.32;54.17;99166.34;5287157;33;34313;-66
2022/09/28 04:16:18;;;;;;;;;;;;;;;14.22;54.62;99162.66;5268416;33;35065;-65
2022/09/28 04:19:21;;;;;;;;;;;;;;;14.09;54.76;99149.50;5298079;33;33993;-80
2022/09/28 04:22:23;;;;;;;;;;;;;;;13.12;57.23;99154.66;5268682;33;33977;-64
2022/09/28 04:25:24;;;;;;;;;;;;;;;13.34;58.21;99162.81;5294557;33;34560;-80
2022/09/28 04:31:48;;;;;;;;;;;;;;;14.66;53.01;99164.69;5287462;33;46911;-80
2022/09/28 04:34:50;;;;;;;;;;;;;;;14.43;52.70;99141.75;5281680;33;33281;-79
2022/09/28 04:37:52;;;;;;;;;;;;;;;14.28;53.54;99156.94;5283061;33;34325;-79
2022/09/28 04:40:54;;;;;;;;;;;;;;;14.22;53.95;99160.88;5298601;33;34386;-80
2022/09/28 04:43:56;;;;;;;;;;;;;;;12.95;57.60;99161.94;5267782;33;34441;-67
2022/09/28 04:46:58;;;;;;;;;;;;;;;13.34;56.52;99157.53;5298126;33;34848;-79
2022/09/28 04:50:06;;;;;;;;;;;;;;;13.57;56.11;99161.19;5280361;33;32373;-66
2022/09/28 04:53:07;;;;;;;;;;;;;;;13.57;55.74;99155.06;5281871;33;34341;-79
2022/09/28 04:56:10;;;;;;;;;;;;;;;13.18;54.60;99160.34;5297413;33;33287;-78
2022/09/28 04:59:12;;;;;;;;;;;;;;;12.87;56.02;99150.22;5262009;33;44607;-79
2022/09/28 05:02:15;;;;;;;;;;;;;;;13.36;55.02;99158.28;5299511;33;33328;-78
2022/09/28 05:05:17;;;;;;;;;;;;;;;12.75;57.53;99154.53;5279378;33;33578;-78
2022/09/28 05:08:19;;;;;;;;;;;;;;;12.34;58.74;99162.56;5271795;33;34793;-65
2022/09/28 05:11:21;;;;;;;;;;;;;;;12.71;57.27;99168.88;5270964;33;33498;-65
2022/09/28 05:14:23;;;;;;;;;;;;;;;12.88;57.04;99181.78;5277583;33;34336;-77
2022/09/28 05:17:25;;;;;;;;;;;;;;;12.57;58.08;99176.88;5283797;33;33710;-77
2022/09/28 05:20:27;;;;;;;;;;;;;;;12.13;59.12;99183.25;5280005;33;33754;-65
2022/09/28 05:23:29;;;;;;;;;;;;;;;13.25;55.64;99181.91;5282626;33;33872;-80
2022/09/28 05:26:31;;;;;;;;;;;;;;;13.60;54.37;99173.34;5275371;33;34299;-79
2022/09/28 05:29:33;;;;;;;;;;;;;;;14.00;53.40;99168.69;5279329;33;35015;-66
2022/09/28 05:32:38;;;;;;;;;;;;;;;13.44;55.04;99165.66;5281151;33;34581;-66
2022/09/28 05:35:40;;;;;;;;;;;;;;;14.04;52.91;99162.25;5278669;33;34286;-74
2022/09/28 05:38:42;;;;;;;;;;;;;;;13.78;52.46;99161.44;5294784;33;45874;-63
2022/09/28 05:41:44;;;;;;;;;;;;;;;15.70;47.45;99160.13;5279909;33;33217;-71
2022/09/28 05:44:46;;;;;;;;;;;;;;;15.61;47.77;99165.31;5306075;33;33119;-72
2022/09/28 05:47:48;;;;;;;;;;;;;;;17.20;44.45;99161.03;5273859;33;34869;-78
2022/09/28 05:50:51;;;;;;;;;;;;;;;18.41;41.22;99160.97;5290992;33;33104;-81
2022/09/28 05:53:54;;;;;;;;;;;;;;;19.12;38.85;99157.97;5274813;33;34382;-77
2022/09/28 05:56:56;;;;;;;;;;;;;;;18.12;40.49;99148.50;5262803;33;35583;-76
2022/09/28 05:59:58;;;;;;;;;;;;;;;17.78;42.15;99150.66;5282426;33;33622;-77
2022/09/28 06:03:01;;;;;;;;;;;;;;;19.63;38.34;99141.56;5253341;33;33769;-73
2022/09/28 06:06:09;;;;;;;;;;;;;;;20.37;37.02;99139.72;5296328;33;32904;-72
2022/09/28 06:09:11;;;;;;;;;;;;;;;19.88;36.97;99137.34;5260118;33;34910;-75
2022/09/28 06:12:14;;;;;;;;;;;;;;;21.42;34.83;99137.00;5283824;33;34873;-71
2022/09/28 06:15:16;;;;;;;;;;;;;;;21.14;34.27;99138.16;5282624;33;33519;-72
2022/09/28 06:18:18;;;;;;;;;;;;;;;22.29;32.96;99145.72;5279029;33;34929;-69
2022/09/28 06:21:20;;;;;;;;;;;;;;;21.14;33.91;99138.16;5296512;33;33943;-69
2022/09/28 06:24:22;;;;;;;;;;;;;;;23.12;31.16;99137.50;5285296;33;33436;-72
2022/09/28 06:27:24;;;;;;;;;;;;;;;22.01;32.68;99148.59;5295441;33;34403;-76
2022/09/28 06:30:26;;;;;;;;;;;;;;;20.94;35.18;99142.88;5282822;33;33273;-77
2022/09/28 06:33:29;;;;;;;;;;;;;;;20.98;34.53;99147.72;5276310;33;34601;-70
2022/09/28 06:36:30;;;;;;;;;;;;;;;22.66;31.57;99139.84;5292255;32;34737;-71
2022/09/28 06:39:32;;;;;;;;;;;;;;;21.96;32.98;99145.59;5284182;33;34073;-76
2022/09/28 06:42:34;;;;;;;;;;;;;;;21.97;33.04;99135.75;5268784;33;35874;-75
2022/09/28 06:45:37;;;;;;;;;;;;;;;21.30;33.49;99139.13;5282600;33;33400;-71
2022/09/28 06:48:39;;;;;;;;;;;;;;;22.59;31.51;99147.72;5294553;33;33099;-86
2022/09/28 06:51:41;;;;;;;;;;;;;;;23.41;30.07;99142.31;5270837;33;44866;-74
2022/09/28 06:54:43;;;;;;;;;;;;;;;22.94;29.95;99153.78;5283939;33;33327;-72
2022/09/28 06:57:45;;;;;;;;;;;;;;;21.47;32.51;99155.25;5274602;33;36423;-69
2022/09/28 07:00:48;;;;;;;;;;;;;;;20.94;33.92;99174.94;5270589;33;34258;-72
2022/09/28 07:03:51;;;;;;;;;;;;;;;22.18;31.74;99160.22;5296830;33;33305;-69
2022/09/28 07:06:57;;;;;;;;;;;;;;;22.48;32.15;99164.13;5289505;33;33037;-68
2022/09/28 07:10:02;;;;;;;;;;;;;;;21.63;33.39;99164.16;5273817;33;33114;-72
2022/09/28 07:13:07;;;;;;;;;;;;;;;24.11;30.02;99145.03;5276027;33;33090;-74
2022/09/28 07:16:17;;;;;;;;;;;;;;;24.81;28.70;99152.97;5284777;33;44560;-81
2022/09/28 07:19:26;;;;;;;;;;;;;;;21.61;34.38;99158.16;5294437;33;34847;-70
2022/09/28 07:22:28;;;;;;;;;;;;;;;23.59;31.04;99147.44;5285003;33;33100;-80
2022/09/28 07:25:46;;;;;;;;;;;;;;;22.52;31.63;99157.44;5285803;33;48471;-72
2022/09/28 07:28:48;;;;;;;;;;;;;;;24.72;28.57;99148.66;5262359;33;33257;-78
2022/09/28 07:31:52;;;;;;;;;;;;;;;21.77;32.61;99148.53;5287708;33;34471;-74
2022/09/28 07:34:55;;;;;;;;;;;;;;;20.62;35.50;99156.81;5276501;33;34002;-73
2022/09/28 07:38:02;;;;;;;;;;;;;;;22.97;30.93;99153.44;5275141;33;34611;-70
2022/09/28 07:41:10;;;;;;;;;;;;;;;23.31;30.89;99147.84;5290043;33;34137;-73
2022/09/28 07:44:12;;;;;;;;;;;;;;;24.72;28.40;99139.78;5266931;33;44404;-69
2022/09/28 07:47:14;;;;;;;;;;;;;;;23.44;30.26;99142.81;5295411;33;34414;-68
2022/09/28 07:50:17;;;;;;;;;;;;;;;21.91;33.37;99147.91;5281490;33;34679;-74
2022/09/28 07:53:22;;;;;;;;;;;;;;;19.82;37.85;99150.44;5283617;33;34370;-75
2022/09/28 07:56:24;;;;;;;;;;;;;;;19.00;39.74;99164.44;5284328;33;33191;-75
2022/09/28 07:59:26;;;;;;;;;;;;;;;20.88;36.41;99157.69;5280376;33;33302;-73
2022/09/28 08:02:29;;;;;;;;;;;;;;;18.42;42.19;99157.34;5295025;33;33376;-76
2022/09/28 08:05:34;;;;;;;;;;;;;;;17.90;43.85;99163.81;5284750;33;33289;-83
2022/09/28 08:08:37;;;;;;;;;;;;;;;18.56;41.64;99169.38;5283152;33;33575;-83
2022/09/28 08:11:39;;;;;;;;;;;;;;;18.18;43.53;99168.38;5291885;32;34404;-80
2022/09/28 08:14:41;;;;;;;;;;;;;;;18.78;42.97;99176.25;5279628;33;34353;-86
2022/09/28 08:17:45;;;;;;;;;;;;;;;19.06;42.47;99175.38;5297696;33;44459;-76
2022/09/28 08:24:07;;;;;;;;;;;;;;;18.01;44.59;99163.72;5272806;33;33216;-71
2022/09/28 08:27:10;;;;;;;;;;;;;;;18.07;44.69;99149.88;5280532;33;33722;-77
2022/09/28 08:30:11;;;;;;;;;;;;;;;17.97;45.09;99141.03;5283333;33;44485;-79
2022/09/28 08:33:14;;;;;;;;;;;;;;;18.02;45.24;99133.50;5288351;33;33386;-80
2022/09/28 08:36:16;;;;;;;;;;;;;;;16.76;48.48;99136.44;5271032;33;34524;-78
2022/09/28 08:39:18;;;;;;;;;;;;;;;17.70;45.93;99134.50;5287010;33;35098;-78
2022/09/28 08:42:38;;;;;;;;;;;;;;;17.72;46.19;99135.25;5279309;33;35430;-78
2022/09/28 08:45:40;;;;;;;;;;;;;;;17.89;46.72;99132.91;5291949;33;33339;-75
2022/09/28 08:49:03;;;;;;;;;;;;;;;17.48;47.95;99140.88;5279276;33;44505;-77
2022/09/28 08:52:27;;;;;;;;;;;;;;;17.84;46.16;99157.25;5271810;33;33617;-68
2022/09/28 08:55:30;;;;;;;;;;;;;;;17.39;48.17;99156.75;5290091;33;34200;-73
2022/09/28 08:58:32;;;;;;;;;;;;;;;18.25;46.15;99158.88;5280833;33;33239;-90
2022/09/28 09:01:37;;;;;;;;;;;;;;;18.39;45.44;99157.59;5284725;33;33332;-82
2022/09/28 09:04:39;;;;;;;;;;;;;;;17.79;46.84;99147.03;5254358;33;33176;-74
2022/09/28 09:07:59;;;;;;;;;;;;;;;17.89;46.54;99141.72;5274271;33;33395;-72
2022/09/28 09:11:20;;;;;;;;;;;;;;;18.41;45.18;99143.19;5284209;33;35141;-74
2022/09/28 09:14:21;;;;;;;;;;;;;;;17.67;46.01;99144.56;5272842;33;33606;-68
2022/09/28 09:17:31;;;;;;;;;;;;;;;17.76;46.95;99147.28;5294090;33;34536;-73
2022/09/28 09:20:51;;;;;;;;;;;;;;;17.63;46.86;99141.34;5271305;33;34493;-69
2022/09/28 09:23:54;;;;;;;;;;;;;;;18.46;44.73;99133.94;5280587;33;34581;-74
2022/09/28 09:27:13;;;;;;;;;;;;;;;18.72;44.52;99137.75;5286246;33;33221;-79
2022/09/28 09:30:15;;;;;;;;;;;;;;;20.71;40.16;99132.69;5270837;33;44754;-77
2022/09/28 09:33:22;;;;;;;;;;;;;;;22.13;37.30;99128.59;5264159;33;34651;-73
2022/09/28 09:36:28;;;;;;;;;;;;;;;23.82;33.62;99118.03;5283432;33;32996;-73
2022/09/28 09:39:36;;;;;;;;;;;;;;;22.62;35.68;99114.44;5277633;33;33328;-66
2022/09/28 09:42:57;;;;;;;;;;;;;;;23.20;35.00;99108.03;5301807;33;33067;-88
2022/09/28 09:45:58;;;;;;;;;;;;;;;21.68;37.47;99120.09;5287596;33;33420;-85
2022/09/28 09:49:04;;;;;;;;;;;;;;;21.47;38.49;99116.00;5290388;33;33226;-80
2022/09/28 09:52:09;;;;;;;;;;;;;;;21.47;38.14;99124.00;5264100;33;33773;-80
2022/09/28 09:55:15;;;;;;;;;;;;;;;23.04;35.14;99113.41;5282379;33;34061;-71
2022/09/28 09:58:18;;;;;;;;;;;;;;;24.99;31.72;99117.69;5293914;33;44489;-70
2022/09/28 10:01:22;;;;;;;;;;;;;;;24.59;32.13;99121.56;5272222;33;33231;-72
2022/09/28 10:04:28;;;;;;;;;;;;;;;23.71;33.76;99116.59;5280226;32;33222;-71
2022/09/28 10:07:38;;;;;;;;;;;;;;;23.76;32.93;99125.78;5273216;33;33193;-70
2022/09/28 10:10:48;;;;;;;;;;;;;;;22.41;35.12;99121.12;5260803;33;44503;-71
2022/09/28 10:13:50;;;;;;;;;;;;;;;21.60;37.18;99120.91;5273102;33;33988;-77
2022/09/28 10:16:54;;;;;;;;;;;;;;;21.03;38.36;99123.22;5288100;33;36445;-68
2022/09/28 10:19:56;;;;;;;;;;;;;;;20.45;40.11;99129.97;5283345;33;33885;-67
2022/09/28 10:23:00;;;;;;;;;;;;;;;20.14;40.80;99133.97;5288398;33;34385;-74
2022/09/28 10:26:03;;;;;;;;;;;;;;;19.88;41.71;99129.34;5276706;33;34725;-67
2022/09/28 10:29:13;;;;;;;;;;;;;;;20.82;40.36;99119.09;5281222;33;33093;-74
2022/09/28 10:32:20;;;;;;;;;;;;;;;20.26;40.98;99130.09;5274709;33;43173;-74
2022/09/28 10:35:23;;;;;;;;;;;;;;;20.05;41.06;99129.53;5295223;33;34768;-75
2022/09/28 10:38:25;;;;;;;;;;;;;;;19.72;41.80;99124.69;5277913;33;34972;-75
2022/09/28 10:41:26;;;;;;;;;;;;;;;19.88;41.83;99134.69;5292415;33;33531;-74
2022/09/28 10:44:29;;;;;;;;;;;;;;;19.77;41.75;99131.38;5282532;33;33369;-78
2022/09/28 10:47:31;;;;;;;;;;;;;;;20.98;39.03;99129.03;5281153;33;33070;-78
2022/09/28 10:50:33;;;;;;;;;;;;;;;20.50;40.12;99129.50;5288404;33;34233;-76
2022/09/28 10:53:38;;;;;;;;;;;;;;;20.23;40.37;99117.91;5276074;33;33074;-70
2022/09/28 10:56:40;;;;;;;;;;;;;;;20.18;41.04;99125.50;5294432;33;34307;-77
2022/09/28 10:59:43;;;;;;;;;;;;;;;19.45;42.21;99122.84;5257961;33;44894;-76
2022/09/28 11:02:44;;;;;;;;;;;;;;;19.37;42.77;99120.03;5290480;33;33420;-78
2022/09/28 11:06:03;;;;;;;;;;;;;;;19.62;42.23;99115.91;5270105;33;33579;-81
2022/09/28 11:09:06;;;;;;;;;;;;;;;19.82;42.16;99107.78;5258352;33;34380;-73
2022/09/28 11:12:12;;;;;;;;;;;;;;;19.16;43.68;99108.78;5279819;33;33176;-75
2022/09/28 11:15:32;;;;;;;;;;;;;;;18.85;44.93;99109.00;5283993;33;47036;-74
2022/09/28 11:18:34;;;;;;;;;;;;;;;18.92;45.16;99104.78;5290921;33;34019;-84
2022/09/28 11:21:41;;;;;;;;;;;;;;;19.41;43.39;99105.47;5259483;33;33765;-78
2022/09/28 11:24:43;;;;;;;;;;;;;;;19.93;42.66;99079.09;5284617;33;46302;-71
2022/09/28 11:27:50;;;;;;;;;;;;;;;20.36;42.10;99090.00;5282751;33;34532;-69
2022/09/28 11:30:52;;;;;;;;;;;;;;;20.74;41.77;99078.16;5287593;33;33543;-73
2022/09/28 11:34:05;;;;;;;;;;;;;;;21.03;41.01;99076.00;5268402;33;33183;-69
2022/09/28 11:37:10;;;;;;;;;;;;;;;20.63;40.62;99091.75;5272050;33;34342;-86
2022/09/28 11:40:15;;;;;;;;;;;;;;;20.69;40.79;99078.63;5300353;33;44463;-86
2022/09/28 11:43:31;;;;;;;;;;;;;;;19.50;42.40;99093.06;5288390;33;33213;-87
2022/09/28 11:46:36;;;;;;;;;;;;;;;19.54;42.56;99086.47;5289778;33;33441;-88
2022/09/28 11:49:40;;;;;;;;;;;;;;;20.22;41.08;99083.34;5287576;33;33180;-84
2022/09/28 11:52:44;;;;;;;;;;;;;;;20.16;41.35;99092.00;5264448;33;44494;-71
2022/09/28 11:55:54;;;;;;;;;;;;;;;19.93;41.25;99086.25;5296432;33;33272;-75
2022/09/28 11:58:57;;;;;;;;;;;;;;;19.72;41.85;99081.22;5269870;33;34333;-69
2022/09/28 12:02:02;;;;;;;;;;;;;;;20.16;40.00;99076.81;5292550;33;33457;-69
2022/09/28 12:05:13;;;;;;;;;;;;;;;19.90;41.17;99079.41;5286013;33;33325;-67
2022/09/28 12:08:28;;;;;;;;;;;;;;;19.54;42.04;99077.63;5268867;33;33510;-69
2022/09/28 12:11:32;;;;;;;;;;;;;;;19.42;43.02;99064.50;5284778;33;34012;-69
2022/09/28 12:14:38;;;;;;;;;;;;;;;19.60;43.02;99064.56;5268231;33;33942;-69
2022/09/28 12:17:51;;;;;;;;;;;;;;;19.51;43.00;99054.75;5270460;33;34654;-70
2022/09/28 12:20:58;;;;;;;;;;;;;;;20.28;41.24;99046.22;5269010;33;32354;-68
2022/09/28 12:24:14;;;;;;;;;;;;;;;19.34;43.65;99050.25;5280236;33;34569;-69
2022/09/28 12:27:17;;;;;;;;;;;;;;;19.40;42.69;99044.34;5280376;33;45455;-72
2022/09/28 12:30:20;;;;;;;;;;;;;;;19.76;41.80;99042.56;5285748;33;34310;-68
2022/09/28 12:33:21;;;;;;;;;;;;;;;19.56;42.02;99039.16;5281402;33;34582;-69
2022/09/28 12:36:27;;;;;;;;;;;;;;;20.19;40.91;99043.66;5256859;33;35005;-78
2022/09/28 12:39:42;;;;;;;;;;;;;;;19.64;42.50;99028.66;5283311;33;31405;-81
2022/09/28 12:43:04;;;;;;;;;;;;;;;19.44;42.58;99033.22;5293147;33;31334;-80
2022/09/28 12:46:09;;;;;;;;;;;;;;;19.62;41.67;99011.94;5287010;33;34543;-67
2022/09/28 12:49:17;;;;;;;;;;;;;;;19.60;42.30;99027.25;5288018;33;43326;-80
2022/09/28 12:52:54;;;;;;;;;;;;;;;19.05;43.49;99023.75;5287042;33;33742;-68
2022/09/28 12:56:02;;;;;;;;;;;;;;;18.65;44.85;99023.00;5280889;33;34832;-68
2022/09/28 12:59:18;;;;;;;;;;;;;;;20.49;40.54;99011.25;5294297;33;33311;-67
2022/09/28 13:02:30;;;;;;;;;;;;;;;21.05;37.92;99015.22;5287236;33;44722;-66
2022/09/28 13:05:32;;;;;;;;;;;;;;;21.95;36.45;99010.16;5297440;33;33811;-72
2022/09/28 13:08:39;;;;;;;;;;;;;;;22.76;34.85;99014.66;5276216;33;35208;-69
2022/09/28 13:11:46;;;;;;;;;;;;;;;24.95;30.85;99005.38;5251025;33;886592;-67
2022/09/28 13:14:52;;;;;;;;;;;;;;;24.35;31.74;99012.53;5286273;33;34699;-69
2022/09/28 13:18:00;;;;;;;;;;;;;;;26.46;28.42;98991.97;5290626;33;33528;-74
2022/09/28 13:21:05;;;;;;;;;;;;;;;27.13;27.15;98988.69;5297345;33;34466;-68
2022/09/28 13:24:08;;;;;;;;;;;;;;;26.09;28.30;98993.09;5291670;33;34110;-67
2022/09/28 13:27:36;;;;;;;;;;;;;;;28.23;25.83;98990.25;5276608;33;35092;-87
2022/09/28 13:30:38;;;;;;;;;;;;;;;26.81;26.83;98990.16;5285848;33;33097;-70
2022/09/28 13:33:41;;;;;;;;;;;;;;;24.41;30.63;99000.19;5278363;33;34743;-68
2022/09/28 13:36:43;;;;;;;;;;;;;;;21.07;36.61;99015.09;5296518;33;44322;-72
2022/09/28 13:39:55;;;;;;;;;;;;;;;20.58;37.99;99000.63;5281966;33;35950;-78
2022/09/28 13:43:06;;;;;;;;;;;;;;;20.05;38.73;99001.53;5261981;33;33265;-75
2022/09/28 13:46:10;;;;;;;;;;;;;;;20.26;38.61;98999.38;5294984;33;33133;-71
2022/09/28 13:49:16;;;;;;;;;;;;;;;19.48;39.77;99002.63;5269676;33;43924;-73
2022/09/28 13:52:26;;;;;;;;;;;;;;;19.29;40.61;98999.25;5295700;33;35045;-74
2022/09/28 13:55:33;;;;;;;;;;;;;;;19.49;39.91;99001.63;5276418;33;34160;-69
2022/09/28 13:58:37;;;;;;;;;;;;;;;19.70;39.32;98997.88;5279998;33;34466;-73
2022/09/28 14:02:00;;;;;;;;;;;;;;;19.42;40.14;98999.72;5263932;33;33305;-73
2022/09/28 14:05:20;;;;;;;;;;;;;;;19.82;39.06;98994.00;5285536;33;33547;-69
2022/09/28 14:08:24;;;;;;;;;;;;;;;19.92;39.14;99004.59;5281973;33;34654;-77
2022/09/28 14:11:26;;;;;;;;;;;;;;;19.71;39.84;98994.25;5276486;33;35330;-91
2022/09/28 14:14:50;;;;;;;;;;;;;;;19.58;39.86;98988.41;5293103;33;33354;-83
2022/09/28 14:17:53;;;;;;;;;;;;;;;19.95;39.09;99006.94;5271279;33;33271;-72
2022/09/28 14:21:00;;;;;;;;;;;;;;;19.02;40.14;99003.59;5285562;33;33302;-80
2022/09/28 14:24:05;;;;;;;;;;;;;;;19.31;39.55;98997.25;5296098;33;34483;-70
2022/09/28 14:27:10;;;;;;;;;;;;;;;18.91;40.58;98996.63;5283476;33;34406;-70
2022/09/28 14:30:12;;;;;;;;;;;;;;;18.86;41.29;98996.22;5292054;33;44352;-70
2022/09/28 14:33:37;;;;;;;;;;;;;;;18.92;41.48;98998.28;5274079;33;33192;-67
2022/09/28 14:43:59;;;;;;;;;;;;;;;18.80;41.29;98986.13;5279557;33;33558;-68
2022/09/28 14:47:20;;;;;;;;;;;;;;;19.07;40.47;98976.53;5276110;33;33230;-79
2022/09/28 14:50:23;;;;;;;;;;;;;;;18.51;41.82;98982.72;5295411;33;34490;-66
2022/09/28 14:53:25;;;;;;;;;;;;;;;18.67;41.86;98978.47;5276498;33;33311;-78
2022/09/28 14:56:28;;;;;;;;;;;;;;;19.04;41.37;98982.13;5293260;33;33497;-78
2022/09/28 14:59:39;;;;;;;;;;;;;;;18.60;42.13;98990.66;5278788;33;34631;-67
2022/09/28 15:02:41;;;;;;;;;;;;;;;18.50;42.72;98978.38;5264348;33;44540;-78
2022/09/28 15:05:45;;;;;;;;;;;;;;;18.69;42.34;98975.69;5283153;33;34611;-66
2022/09/28 15:08:48;;;;;;;;;;;;;;;18.37;43.11;98971.56;5266594;33;35674;-68
2022/09/28 15:11:54;;;;;;;;;;;;;;;18.44;43.07;98968.31;5276289;33;35731;-78
2022/09/28 15:15:01;;;;;;;;;;;;;;;18.77;42.32;98969.66;5268222;33;33743;-68
2022/09/28 15:18:18;;;;;;;;;;;;;;;18.67;42.57;98969.66;5293273;33;33855;-67
2022/09/28 15:21:20;;;;;;;;;;;;;;;19.03;42.06;98965.31;5290458;33;45030;-66
2022/09/28 15:24:22;;;;;;;;;;;;;;;19.11;41.96;98967.22;5274392;33;34516;-68
2022/09/28 15:27:24;;;;;;;;;;;;;;;18.58;43.27;98954.56;5272092;33;33651;-67
2022/09/28 15:30:30;;;;;;;;;;;;;;;18.96;42.55;98964.22;5279446;33;33779;-66
2022/09/28 15:36:55;;;;;;;;;;;;;;;18.39;44.20;98947.47;5260546;33;34749;-77
2022/09/28 15:39:57;;;;;;;;;;;;;;;18.33;44.43;98954.19;5269576;33;33983;-76
2022/09/28 15:42:59;;;;;;;;;;;;;;;18.19;44.61;98959.97;5294667;33;33871;-78
2022/09/28 15:46:10;;;;;;;;;;;;;;;18.10;44.29;98963.50;5266530;33;33211;-67
2022/09/28 15:49:22;;;;;;;;;;;;;;;18.74;42.98;98962.81;5282539;33;44623;-76
2022/09/28 15:52:33;;;;;;;;;;;;;;;18.95;42.47;98970.56;5270954;33;33818;-76
2022/09/28 15:55:36;;;;;;;;;;;;;;;18.58;42.76;98974.00;5285481;33;34481;-69
2022/09/28 15:58:38;;;;;;;;;;;;;;;18.74;42.81;98976.09;5298256;33;35306;-87
2022/09/28 16:01:44;;;;;;;;;;;;;;;18.52;43.27;98979.06;5252784;33;33120;-70
2022/09/28 16:04:50;;;;;;;;;;;;;;;18.21;43.71;98975.78;5294393;33;44553;-69
2022/09/28 16:07:52;;;;;;;;;;;;;;;18.71;42.72;98964.91;5265567;33;34567;-69
2022/09/28 16:11:15;;;;;;;;;;;;;;;19.39;41.35;98965.41;5257529;33;34063;-68
2022/09/28 16:14:18;;;;;;;;;;;;;;;19.09;41.78;98967.38;5293859;33;44619;-70
2022/09/28 16:17:31;;;;;;;;;;;;;;;19.29;41.79;98968.09;5272444;33;33595;-68
2022/09/28 16:20:34;;;;;;;;;;;;;;;19.09;42.10;98971.87;5288929;33;33924;-70
2022/09/28 16:23:36;;;;;;;;;;;;;;;18.75;43.11;98974.28;5279638;33;33951;-87